Time;durP1;ratioP1;P1;durP2;ratioP2;P2;SDS_P1;SDS_P2;PMS_P1;PMS_P2;Temp;Humidity;BMP_temperature;BMP_pressure;BME280_temperature;BME280_humidity;BME280_pressure;Samples;Min_cycle;Max_cycle;Signal;HPM_P1;HPM_P2
2022/09/09 00:00:54;;;;;;;13.40;5.57;;;22.10;90.50;;;;;;4969716;28;20225;-70
2022/09/09 00:03:52;;;;;;;9.47;5.67;;;22.10;90.50;;;;;;4972930;28;20236;-68
2022/09/09 00:06:35;;;;;;;11.57;5.77;;;22.10;90.40;;;;;;4970929;28;20657;-68
2022/09/09 00:09:19;;;;;;;10.10;5.67;;;22.10;90.40;;;;;;4986116;28;20202;-68
2022/09/09 00:12:08;;;;;;;6.63;5.30;;;22.10;90.50;;;;;;4969139;28;20288;-69
2022/09/09 00:14:54;;;;;;;8.60;6.13;;;22.00;90.50;;;;;;4973436;28;20666;-68
2022/09/09 00:18:01;;;;;;;11.50;5.40;;;22.00;90.50;;;;;;4985607;28;20617;-70
2022/09/09 00:21:18;;;;;;;8.80;5.73;;;22.10;90.50;;;;;;4971472;28;20283;-70
2022/09/09 00:23:54;;;;;;;6.13;5.20;;;22.00;90.40;;;;;;4958469;28;20624;-70
2022/09/09 00:26:33;;;;;;;8.50;4.87;;;22.00;90.40;;;;;;4969295;28;20241;-70
2022/09/09 00:29:07;;;;;;;7.50;5.10;;;22.00;90.30;;;;;;4973045;28;20287;-70
2022/09/09 00:31:34;;;;;;;6.60;4.80;;;21.90;90.30;;;;;;4986472;28;20209;-70
2022/09/09 00:34:17;;;;;;;6.73;5.23;;;21.90;90.30;;;;;;4970526;28;20256;-70
2022/09/09 00:36:45;;;;;;;9.10;5.63;;;21.90;90.30;;;;;;4970617;28;20649;-70
2022/09/09 00:39:38;;;;;;;6.80;4.97;;;21.90;90.30;;;;;;4973545;28;20256;-70
2022/09/09 00:42:24;;;;;;;9.77;5.97;;;21.80;90.40;;;;;;4968146;28;20210;-70
2022/09/09 00:45:27;;;;;;;7.33;5.17;;;21.80;90.50;;;;;;4985193;28;20209;-71
2022/09/09 00:47:56;;;;;;;5.77;5.20;;;21.80;90.40;;;;;;4965857;28;20623;-71
2022/09/09 00:50:29;;;;;;;12.40;5.20;;;21.80;90.30;;;;;;4968181;28;20288;-71
2022/09/09 00:53:02;;;;;;;8.50;5.53;;;21.80;90.30;;;;;;4966005;28;20204;-71
2022/09/09 00:55:54;;;;;;;7.63;5.63;;;21.80;90.30;;;;;;4984520;28;20290;-71
2022/09/09 00:58:21;;;;;;;8.67;5.30;;;21.70;90.30;;;;;;4971126;28;20201;-71
2022/09/09 01:01:01;;;;;;;11.70;4.90;;;21.70;90.20;;;;;;4983555;28;20202;-71
2022/09/09 01:03:40;;;;;;;6.97;5.30;;;21.70;90.20;;;;;;4983647;28;20226;-71
2022/09/09 01:06:29;;;;;;;9.73;5.50;;;21.70;90.20;;;;;;4968758;28;20556;-71
2022/09/09 01:09:17;;;;;;;5.93;4.83;;;21.70;90.50;;;;;;4966275;28;20208;-71
2022/09/09 01:12:17;;;;;;;6.20;4.90;;;21.70;90.30;;;;;;4986682;28;20216;-71
2022/09/09 01:14:54;;;;;;;9.17;5.33;;;21.60;90.10;;;;;;4983484;28;20262;-72
2022/09/09 01:17:30;;;;;;;7.20;4.87;;;21.60;90.10;;;;;;4982464;28;20224;-71
2022/09/09 01:20:06;;;;;;;10.90;5.87;;;21.60;89.70;;;;;;4970632;28;20729;-71
2022/09/09 01:23:01;;;;;;;10.47;5.37;;;21.50;89.60;;;;;;4971454;28;20646;-71
2022/09/09 01:26:04;;;;;;;6.43;5.20;;;21.40;89.90;;;;;;4985432;28;20213;-70
2022/09/09 01:28:35;;;;;;;6.97;4.43;;;21.40;90.10;;;;;;4971933;28;20254;-70
2022/09/09 01:31:11;;;;;;;6.67;5.23;;;21.30;90.20;;;;;;4971071;28;20243;-71
2022/09/09 01:33:43;;;;;;;8.30;4.87;;;21.30;90.30;;;;;;4972157;28;20219;-71
2022/09/09 01:36:34;;;;;;;9.37;5.27;;;21.30;90.40;;;;;;4963619;28;20237;-71
2022/09/09 01:39:01;;;;;;;8.60;5.33;;;21.30;90.50;;;;;;4983692;28;20212;-71
2022/09/09 01:41:28;;;;;;;8.67;5.23;;;21.30;90.50;;;;;;4966342;28;20208;-71
2022/09/09 01:44:02;;;;;;;9.20;5.20;;;21.30;90.40;;;;;;4970032;28;20220;-72
2022/09/09 01:46:32;;;;;;;11.43;5.17;;;21.20;90.50;;;;;;4969510;28;20215;-71
2022/09/09 01:49:01;;;;;;;7.57;4.80;;;21.20;90.50;;;;;;4964808;28;20223;-71
2022/09/09 01:51:29;;;;;;;6.27;5.10;;;21.20;90.50;;;;;;4972451;28;20221;-72
2022/09/09 01:54:00;;;;;;;7.40;4.93;;;21.20;90.50;;;;;;4971833;28;20248;-71
2022/09/09 01:56:33;;;;;;;10.97;5.07;;;21.20;90.50;;;;;;4968432;28;20235;-71
2022/09/09 01:59:06;;;;;;;7.57;4.93;;;21.10;90.40;;;;;;4969133;28;20217;-71
2022/09/09 02:01:39;;;;;;;9.07;5.30;;;21.20;90.30;;;;;;4970637;28;20208;-71
2022/09/09 02:04:37;;;;;;;7.63;5.00;;;21.10;90.30;;;;;;4971830;28;20209;-71
2022/09/09 02:07:48;;;;;;;8.00;4.73;;;21.10;90.40;;;;;;4971321;28;20243;-72
2022/09/09 02:10:46;;;;;;;12.17;5.50;;;21.10;90.60;;;;;;4963731;28;20238;-71
2022/09/09 02:13:22;;;;;;;9.77;6.77;;;21.00;90.60;;;;;;4986270;28;20220;-71
2022/09/09 02:16:02;;;;;;;11.63;5.83;;;21.00;90.60;;;;;;4972909;28;20568;-71
2022/09/09 02:18:48;;;;;;;8.23;6.63;;;21.00;90.70;;;;;;4974358;28;20204;-71
2022/09/09 02:21:18;;;;;;;11.23;7.03;;;21.00;90.80;;;;;;4989513;28;20216;-71
2022/09/09 02:23:49;;;;;;;13.60;7.00;;;21.00;90.90;;;;;;4964432;28;20537;-71
2022/09/09 02:26:20;;;;;;;11.60;6.13;;;21.00;90.90;;;;;;4981972;28;20232;-72
2022/09/09 02:28:52;;;;;;;11.27;6.73;;;21.00;90.80;;;;;;4988900;28;20220;-71
2022/09/09 02:31:24;;;;;;;15.47;7.67;;;20.90;90.80;;;;;;4968015;28;20208;-72
2022/09/09 02:34:00;;;;;;;16.93;7.63;;;20.90;90.80;;;;;;4972839;28;20239;-72
2022/09/09 02:36:33;;;;;;;8.37;7.20;;;20.90;91.00;;;;;;4972233;28;20324;-72
2022/09/09 02:39:01;;;;;;;16.93;8.00;;;20.90;91.10;;;;;;4987075;28;20207;-72
2022/09/09 02:41:37;;;;;;;11.27;7.13;;;20.90;91.20;;;;;;4984464;28;20213;-72
2022/09/09 02:44:17;;;;;;;9.13;7.30;;;20.90;91.10;;;;;;4972035;28;20284;-72
2022/09/09 02:47:08;;;;;;;12.53;7.40;;;20.90;91.00;;;;;;4968573;28;20225;-72
2022/09/09 02:49:49;;;;;;;9.43;7.00;;;20.90;91.00;;;;;;4987082;28;20212;-72
2022/09/09 02:52:30;;;;;;;10.50;7.93;;;20.90;91.20;;;;;;4987760;28;20213;-72
2022/09/09 02:55:04;;;;;;;19.73;9.17;;;21.00;91.20;;;;;;4974198;28;20318;-72
2022/09/09 02:57:33;;;;;;;13.50;7.73;;;21.00;91.20;;;;;;4981267;28;20272;-71
2022/09/09 03:00:01;;;;;;;12.57;7.80;;;21.00;91.10;;;;;;4974848;28;20359;-71
2022/09/09 03:02:30;;;;;;;14.30;8.50;;;21.00;91.00;;;;;;4985326;28;20206;-71
2022/09/09 03:05:03;;;;;;;12.17;7.40;;;21.00;91.10;;;;;;4988407;28;20223;-72
2022/09/09 03:07:30;;;;;;;12.63;7.33;;;20.90;91.00;;;;;;4971790;28;20200;-72
2022/09/09 03:09:58;;;;;;;8.90;7.27;;;20.90;90.70;;;;;;4966008;28;20551;-72
2022/09/09 03:12:27;;;;;;;11.83;8.57;;;20.90;90.60;;;;;;4973560;28;20602;-72
2022/09/09 03:14:53;;;;;;;9.83;7.57;;;20.80;90.90;;;;;;4985741;28;20275;-72
2022/09/09 03:17:21;;;;;;;13.50;8.73;;;20.80;90.70;;;;;;4986263;28;20213;-72
2022/09/09 03:19:54;;;;;;;10.67;7.87;;;20.80;90.80;;;;;;4970730;28;20233;-72
2022/09/09 03:22:21;;;;;;;14.97;8.90;;;20.80;90.90;;;;;;4972891;28;20713;-72
2022/09/09 03:24:49;;;;;;;13.13;8.27;;;20.80;91.00;;;;;;4985452;28;20213;-72
2022/09/09 03:27:17;;;;;;;10.93;7.73;;;20.80;91.00;;;;;;4972424;28;20681;-72
2022/09/09 03:29:44;;;;;;;13.07;8.00;;;20.80;91.00;;;;;;4984053;28;20677;-72
2022/09/09 03:32:17;;;;;;;13.17;9.13;;;20.80;91.00;;;;;;4964935;28;20219;-72
2022/09/09 03:34:47;;;;;;;14.27;8.93;;;20.80;91.10;;;;;;4988892;28;20209;-72
2022/09/09 03:37:15;;;;;;;10.13;8.07;;;20.80;91.10;;;;;;4985843;28;20228;-72
2022/09/09 03:39:42;;;;;;;13.33;8.33;;;20.80;91.00;;;;;;4986442;28;20563;-72
2022/09/09 03:42:14;;;;;;;12.83;8.00;;;20.70;91.00;;;;;;4969254;28;20300;-72
2022/09/09 03:44:41;;;;;;;10.83;9.17;;;20.70;91.00;;;;;;4971489;28;20218;-72
2022/09/09 03:47:09;;;;;;;15.83;9.30;;;20.70;91.10;;;;;;4983686;28;20511;-72
2022/09/09 03:49:36;;;;;;;9.07;7.13;;;20.70;91.20;;;;;;4964161;28;20313;-72
2022/09/09 03:52:04;;;;;;;11.47;8.03;;;20.70;91.20;;;;;;4986464;28;20213;-72
2022/09/09 03:54:31;;;;;;;11.87;9.00;;;20.70;91.10;;;;;;4974192;28;20237;-72
2022/09/09 03:56:58;;;;;;;7.77;7.00;;;20.70;91.10;;;;;;4963330;28;20247;-72
2022/09/09 03:59:26;;;;;;;9.83;7.97;;;20.60;91.10;;;;;;4971701;28;20211;-72
2022/09/09 04:01:54;;;;;;;12.47;9.80;;;20.60;91.10;;;;;;4985471;28;20206;-72
2022/09/09 04:04:22;;;;;;;12.10;10.33;;;20.60;91.10;;;;;;4987458;28;20222;-71
2022/09/09 04:06:50;;;;;;;9.80;8.70;;;20.60;91.00;;;;;;4971524;28;20213;-71
2022/09/09 04:09:17;;;;;;;14.40;9.17;;;20.60;91.00;;;;;;4974027;28;20294;-71
2022/09/09 04:11:45;;;;;;;11.90;10.63;;;20.50;91.10;;;;;;4967139;28;20226;-71
2022/09/09 04:14:14;;;;;;;14.30;10.73;;;20.50;91.10;;;;;;4985635;28;20225;-72
2022/09/09 04:16:42;;;;;;;10.23;8.20;;;20.50;91.10;;;;;;4986805;28;20247;-72
2022/09/09 04:19:13;;;;;;;22.80;7.13;;;20.50;90.90;;;;;;4971398;28;20355;-72
2022/09/09 04:21:42;;;;;;;33.03;6.67;;;20.40;90.40;;;;;;4985398;28;20264;-72
2022/09/09 04:24:09;;;;;;;9.53;7.77;;;20.40;90.30;;;;;;4967585;28;20208;-72
2022/09/09 04:26:37;;;;;;;9.10;8.27;;;20.30;90.60;;;;;;4986361;28;20288;-72
2022/09/09 04:29:04;;;;;;;10.87;8.40;;;20.30;91.00;;;;;;4969311;28;20220;-72
2022/09/09 04:31:32;;;;;;;12.23;9.20;;;20.30;91.40;;;;;;4983552;28;20209;-72
2022/09/09 04:34:05;;;;;;;9.80;8.80;;;20.30;91.60;;;;;;4989543;28;20287;-72
2022/09/09 04:36:32;;;;;;;13.23;9.77;;;20.30;91.80;;;;;;4987700;28;20239;-72
2022/09/09 04:39:03;;;;;;;14.10;10.70;;;20.40;91.90;;;;;;4964572;28;20213;-72
2022/09/09 04:41:31;;;;;;;12.40;9.93;;;20.50;92.20;;;;;;4988282;28;20238;-72
2022/09/09 04:44:00;;;;;;;22.10;11.40;;;20.50;92.40;;;;;;4972548;28;20224;-72
2022/09/09 04:46:27;;;;;;;19.73;13.63;;;20.60;92.40;;;;;;4982348;28;20664;-72
2022/09/09 04:48:56;;;;;;;22.33;11.53;;;20.70;92.50;;;;;;4984973;28;20208;-72
2022/09/09 04:51:28;;;;;;;17.80;11.87;;;20.70;92.50;;;;;;4970926;28;20220;-72
2022/09/09 04:53:55;;;;;;;14.17;11.53;;;20.80;92.50;;;;;;4970026;28;20678;-72
2022/09/09 04:56:22;;;;;;;15.37;11.83;;;20.90;92.60;;;;;;4961353;28;20264;-72
2022/09/09 04:58:52;;;;;;;15.63;12.33;;;20.90;92.60;;;;;;4971843;28;20208;-72
2022/09/09 05:01:24;;;;;;;21.67;12.07;;;21.00;92.60;;;;;;4969762;28;20252;-72
2022/09/09 05:03:53;;;;;;;22.53;12.33;;;21.00;92.70;;;;;;4970080;28;20205;-72
2022/09/09 05:06:22;;;;;;;19.17;12.83;;;21.00;92.90;;;;;;4971672;28;20224;-72
2022/09/09 05:08:55;;;;;;;20.90;15.30;;;21.10;92.90;;;;;;4970147;28;20746;-72
2022/09/09 05:11:30;;;;;;;22.57;15.37;;;21.10;93.00;;;;;;4969599;28;20251;-72
2022/09/09 05:14:06;;;;;;;24.13;13.90;;;21.20;93.00;;;;;;4970654;28;20243;-72
2022/09/09 05:16:34;;;;;;;20.03;14.57;;;21.20;93.10;;;;;;4968379;28;20229;-72
2022/09/09 05:19:03;;;;;;;24.33;15.67;;;21.30;93.20;;;;;;4970582;28;20268;-72
2022/09/09 05:21:41;;;;;;;27.63;15.17;;;21.40;93.30;;;;;;4970357;28;20201;-72
2022/09/09 05:24:08;;;;;;;31.13;16.97;;;21.40;93.30;;;;;;4972175;28;20209;-72
2022/09/09 05:26:35;;;;;;;39.10;16.80;;;21.50;93.40;;;;;;4985970;28;20215;-72
2022/09/09 05:29:02;;;;;;;29.20;16.90;;;21.50;93.40;;;;;;4970081;28;20205;-72
2022/09/09 05:31:31;;;;;;;46.67;17.67;;;21.50;93.40;;;;;;4982967;28;20245;-72
2022/09/09 05:34:02;;;;;;;37.80;17.67;;;21.60;93.30;;;;;;4961642;28;20738;-73
2022/09/09 05:36:29;;;;;;;41.67;19.63;;;21.60;93.30;;;;;;4963717;28;20233;-72
2022/09/09 05:38:56;;;;;;;41.50;19.90;;;21.60;93.40;;;;;;4978783;28;20209;-72
2022/09/09 05:41:26;;;;;;;46.67;19.43;;;21.60;93.50;;;;;;4971775;28;20259;-72
2022/09/09 05:43:55;;;;;;;50.73;19.90;;;21.70;93.60;;;;;;4966324;28;20245;-72
2022/09/09 05:46:24;;;;;;;40.83;19.47;;;21.70;93.70;;;;;;4962939;28;20248;-72
2022/09/09 05:48:53;;;;;;;35.50;20.03;;;21.80;93.80;;;;;;4983784;28;20201;-72
2022/09/09 05:51:31;;;;;;;46.63;17.70;;;21.80;93.90;;;;;;4982450;28;20226;-72
2022/09/09 05:54:04;;;;;;;37.07;18.23;;;21.90;94.00;;;;;;4967881;28;20251;-72
2022/09/09 05:56:34;;;;;;;39.43;19.23;;;21.90;94.00;;;;;;4956078;28;20229;-72
2022/09/09 05:59:01;;;;;;;42.53;18.73;;;21.90;94.00;;;;;;4984397;28;20210;-72
2022/09/09 06:01:31;;;;;;;28.73;19.47;;;22.00;94.10;;;;;;4979756;28;20767;-72
2022/09/09 06:04:00;;;;;;;43.77;20.13;;;22.00;94.40;;;;;;4984307;28;20200;-72
2022/09/09 06:06:31;;;;;;;33.17;20.00;;;22.00;94.20;;;;;;4984320;28;20218;-72
2022/09/09 06:08:59;;;;;;;35.60;20.13;;;22.10;94.30;;;;;;4969370;28;20569;-72
2022/09/09 06:11:34;;;;;;;38.70;20.67;;;22.10;94.30;;;;;;4984521;28;20205;-72
2022/09/09 06:14:01;;;;;;;37.83;20.43;;;22.20;94.40;;;;;;4983159;28;20216;-72
2022/09/09 06:16:32;;;;;;;43.07;20.93;;;22.20;94.40;;;;;;4971290;28;20228;-72
2022/09/09 06:19:00;;;;;;;63.10;19.30;;;22.30;94.40;;;;;;4980577;28;20673;-72
2022/09/09 06:21:37;;;;;;;34.13;17.03;;;22.30;94.40;;;;;;4987131;28;20220;-72
2022/09/09 06:24:10;;;;;;;54.87;17.63;;;22.40;94.30;;;;;;4984980;28;20228;-72
2022/09/09 06:26:42;;;;;;;39.13;16.37;;;22.40;94.20;;;;;;4979486;28;20209;-72
2022/09/09 06:29:12;;;;;;;39.93;17.20;;;22.40;94.20;;;;;;4980005;28;20716;-72
2022/09/09 06:31:41;;;;;;;33.73;15.23;;;22.50;94.20;;;;;;4987428;28;20276;-72
2022/09/09 06:34:19;;;;;;;42.27;13.67;;;22.50;94.30;;;;;;4985471;28;20324;-72
2022/09/09 06:36:50;;;;;;;28.20;15.30;;;22.60;94.20;;;;;;4986556;28;20229;-72
2022/09/09 06:39:17;;;;;;;27.70;16.40;;;22.60;94.20;;;;;;4987088;28;20261;-72
2022/09/09 06:41:45;;;;;;;33.83;17.27;;;22.60;94.10;;;;;;4983511;28;20198;-72
2022/09/09 06:44:38;;;;;;;26.93;14.60;;;22.70;94.10;;;;;;4966199;28;20568;-72
2022/09/09 06:47:10;;;;;;;22.67;14.27;;;22.70;94.00;;;;;;4983644;28;20364;-72
2022/09/09 06:49:39;;;;;;;36.80;16.97;;;22.70;93.80;;;;;;4969969;28;20218;-73
2022/09/09 06:52:09;;;;;;;26.13;14.93;;;22.70;93.70;;;;;;4987862;28;20209;-73
2022/09/09 06:54:37;;;;;;;24.87;15.13;;;22.70;93.80;;;;;;4973240;28;20241;-72
2022/09/09 06:57:07;;;;;;;32.27;15.43;;;22.70;94.00;;;;;;4985551;28;20225;-72
2022/09/09 06:59:55;;;;;;;35.47;16.67;;;22.70;93.90;;;;;;4988322;28;20207;-72
2022/09/09 07:02:23;;;;;;;33.87;17.03;;;22.70;93.80;;;;;;4969409;28;20559;-72
2022/09/09 07:04:51;;;;;;;27.37;15.53;;;22.70;93.90;;;;;;4988289;28;20201;-73
2022/09/09 07:07:19;;;;;;;31.93;16.20;;;22.70;94.10;;;;;;4983223;28;20210;-73
2022/09/09 07:09:46;;;;;;;25.13;15.47;;;22.70;94.00;;;;;;4986569;28;20584;-73
2022/09/09 07:12:14;;;;;;;22.40;14.97;;;22.70;94.20;;;;;;4961358;28;20214;-72
2022/09/09 07:14:49;;;;;;;20.90;15.17;;;22.70;94.20;;;;;;4976165;28;20209;-72
2022/09/09 07:17:16;;;;;;;20.13;14.83;;;22.80;94.30;;;;;;4970949;28;20228;-72
2022/09/09 07:19:43;;;;;;;22.73;16.73;;;22.90;94.30;;;;;;4986663;28;20549;-72
2022/09/09 07:22:10;;;;;;;20.97;15.83;;;22.90;94.10;;;;;;4988352;28;20216;-72
2022/09/09 07:24:38;;;;;;;23.27;17.13;;;23.00;94.00;;;;;;4984152;28;20292;-72
2022/09/09 07:27:05;;;;;;;22.03;15.30;;;23.10;94.10;;;;;;4982516;28;20209;-73
2022/09/09 07:29:34;;;;;;;24.37;15.83;;;23.10;93.80;;;;;;4975004;28;20224;-73
2022/09/09 07:32:03;;;;;;;20.23;15.10;;;23.10;93.60;;;;;;4970921;28;20236;-72
2022/09/09 07:34:34;;;;;;;24.27;16.30;;;23.10;93.50;;;;;;4985697;28;20208;-72
2022/09/09 07:37:02;;;;;;;20.70;15.27;;;23.10;93.40;;;;;;4987820;28;20685;-72
2022/09/09 07:39:30;;;;;;;20.83;15.13;;;23.10;93.50;;;;;;4987354;28;20296;-72
2022/09/09 07:41:58;;;;;;;24.70;15.83;;;23.10;93.60;;;;;;4974427;28;20212;-72
2022/09/09 07:44:26;;;;;;;21.80;15.40;;;23.20;93.60;;;;;;4974213;28;20214;-72
2022/09/09 07:47:04;;;;;;;22.40;14.70;;;23.30;93.50;;;;;;4972681;28;20209;-72
2022/09/09 07:49:36;;;;;;;21.97;15.97;;;23.40;93.40;;;;;;4986980;28;20224;-71
2022/09/09 07:52:05;;;;;;;24.13;15.57;;;23.50;93.40;;;;;;4963787;28;20651;-72
2022/09/09 07:54:33;;;;;;;16.87;13.80;;;23.70;93.30;;;;;;4983535;28;20237;-72
2022/09/09 07:57:04;;;;;;;19.80;14.87;;;23.80;92.70;;;;;;4967566;28;20264;-72
2022/09/09 07:59:33;;;;;;;22.50;15.43;;;23.80;91.70;;;;;;4955139;28;20205;-72
2022/09/09 08:02:01;;;;;;;17.13;14.73;;;23.80;91.70;;;;;;4985265;28;20221;-72
2022/09/09 08:04:31;;;;;;;20.30;15.73;;;23.90;91.40;;;;;;4970814;28;20224;-72
2022/09/09 08:07:00;;;;;;;19.20;14.80;;;24.00;91.50;;;;;;4970154;28;20228;-72
2022/09/09 08:09:32;;;;;;;19.80;15.17;;;24.00;91.30;;;;;;4987546;28;20209;-72
2022/09/09 08:12:16;;;;;;;18.83;13.87;;;24.10;91.30;;;;;;4987119;28;20691;-72
2022/09/09 08:14:43;;;;;;;23.47;16.13;;;24.20;91.20;;;;;;4968197;28;20240;-72
2022/09/09 08:17:10;;;;;;;24.27;16.37;;;24.40;91.10;;;;;;4965837;28;20613;-72
2022/09/09 08:19:38;;;;;;;21.73;14.80;;;24.60;90.60;;;;;;4956832;28;20223;-72
2022/09/09 08:22:10;;;;;;;20.27;15.20;;;24.80;90.50;;;;;;4969841;28;20244;-72
2022/09/09 08:24:39;;;;;;;14.87;12.83;;;25.00;90.30;;;;;;4948813;28;20209;-72
2022/09/09 08:27:07;;;;;;;21.90;12.70;;;25.30;90.10;;;;;;4985825;28;20526;-71
2022/09/09 08:29:34;;;;;;;16.13;12.77;;;25.60;87.40;;;;;;4968259;28;20662;-71
2022/09/09 08:32:02;;;;;;;18.27;13.47;;;25.80;84.50;;;;;;4967921;28;20206;-72
2022/09/09 08:34:31;;;;;;;15.83;11.27;;;25.90;84.50;;;;;;4966590;28;20211;-71
2022/09/09 08:37:01;;;;;;;14.03;10.60;;;26.20;84.30;;;;;;4969920;28;20213;-73
2022/09/09 08:39:34;;;;;;;14.33;10.20;;;26.40;81.80;;;;;;4971619;28;20733;-72
2022/09/09 08:42:33;;;;;;;13.07;9.30;;;26.50;79.60;;;;;;4985036;28;20598;-72
2022/09/09 08:45:29;;;;;;;13.33;8.77;;;26.60;78.30;;;;;;4968862;28;20653;-71
2022/09/09 08:48:26;;;;;;;11.43;7.47;;;26.70;77.50;;;;;;4969359;28;20628;-71
2022/09/09 08:51:00;;;;;;;12.30;7.07;;;26.80;77.80;;;;;;4984948;28;20651;-71
2022/09/09 08:53:46;;;;;;;9.90;6.80;;;27.00;77.90;;;;;;4969245;28;20212;-72
2022/09/09 08:56:18;;;;;;;14.00;7.87;;;27.30;77.00;;;;;;4986205;28;20658;-72
2022/09/09 08:58:51;;;;;;;11.77;6.17;;;27.50;75.60;;;;;;4966460;28;20665;-72
2022/09/09 09:01:50;;;;;;;13.13;9.83;;;27.70;75.40;;;;;;4987171;28;20212;-72
2022/09/09 09:04:41;;;;;;;14.20;9.30;;;28.00;73.90;;;;;;4972557;28;20216;-72
2022/09/09 09:07:12;;;;;;;12.10;7.67;;;28.10;72.40;;;;;;4987968;28;20213;-71
2022/09/09 09:10:17;;;;;;;13.23;6.50;;;28.10;71.40;;;;;;4989107;28;20219;-71
2022/09/09 09:13:15;;;;;;;10.53;6.17;;;28.20;71.30;;;;;;4987769;28;20227;-71
2022/09/09 09:15:46;;;;;;;8.57;5.10;;;28.30;70.60;;;;;;4976342;28;20275;-71
2022/09/09 09:18:15;;;;;;;6.13;4.53;;;28.40;69.50;;;;;;4974777;28;20696;-71
2022/09/09 09:21:05;;;;;;;7.97;4.33;;;28.50;68.90;;;;;;4975234;28;20204;-71
2022/09/09 09:24:09;;;;;;;6.70;3.50;;;28.70;67.50;;;;;;4987367;28;20546;-71
2022/09/09 09:26:37;;;;;;;5.27;2.80;;;28.80;66.90;;;;;;4987332;28;20219;-71
2022/09/09 09:29:18;;;;;;;4.60;3.43;;;29.00;65.50;;;;;;4990285;28;20303;-71
2022/09/09 09:31:52;;;;;;;5.70;3.37;;;29.10;64.60;;;;;;4988431;28;20656;-71
2022/09/09 09:34:19;;;;;;;12.50;2.93;;;29.30;64.30;;;;;;4985004;28;20213;-71
2022/09/09 09:36:53;;;;;;;8.40;3.13;;;29.50;63.50;;;;;;4971286;28;20221;-71
2022/09/09 09:39:39;;;;;;;6.17;3.10;;;29.60;61.70;;;;;;4973543;28;20207;-70
2022/09/09 09:42:27;;;;;;;9.37;2.67;;;29.70;60.80;;;;;;4991043;28;20303;-71
2022/09/09 09:45:06;;;;;;;4.10;2.50;;;29.80;60.40;;;;;;4969685;28;20630;-71
2022/09/09 09:47:33;;;;;;;8.50;2.73;;;30.00;59.30;;;;;;4985266;28;20208;-71
2022/09/09 09:50:20;;;;;;;5.93;2.07;;;30.10;57.10;;;;;;4986105;28;20214;-71
2022/09/09 09:52:58;;;;;;;4.77;1.93;;;30.20;57.00;;;;;;4989949;28;20638;-71
2022/09/09 09:55:30;;;;;;;6.27;1.73;;;30.30;57.00;;;;;;4970858;28;20685;-71
2022/09/09 09:58:05;;;;;;;5.27;1.67;;;30.40;55.40;;;;;;4988841;28;20256;-71
2022/09/09 10:00:36;;;;;;;3.23;1.57;;;30.50;54.40;;;;;;4987965;28;20209;-70
2022/09/09 10:03:28;;;;;;;5.50;1.73;;;30.60;54.80;;;;;;4985883;28;20271;-71
2022/09/09 10:05:56;;;;;;;2.03;1.83;;;30.70;53.60;;;;;;4986250;28;20212;-70
2022/09/09 10:08:27;;;;;;;3.37;2.10;;;30.80;53.10;;;;;;4986869;28;20593;-70
2022/09/09 10:11:06;;;;;;;3.77;2.00;;;30.70;53.80;;;;;;4989221;28;20208;-71
2022/09/09 10:13:57;;;;;;;6.63;2.43;;;30.80;52.50;;;;;;4966636;28;20216;-71
2022/09/09 10:16:46;;;;;;;3.57;2.10;;;30.80;52.70;;;;;;4990647;28;20646;-70
2022/09/09 10:19:19;;;;;;;2.87;1.40;;;30.80;51.70;;;;;;4986735;28;20197;-70
2022/09/09 10:22:17;;;;;;;7.53;1.93;;;30.90;50.20;;;;;;4985840;28;20196;-71
2022/09/09 10:25:11;;;;;;;8.23;2.20;;;30.90;50.90;;;;;;4994067;28;20259;-70
2022/09/09 10:27:58;;;;;;;5.47;3.00;;;31.10;52.70;;;;;;4993705;28;20209;-70
2022/09/09 10:30:43;;;;;;;5.63;2.33;;;31.20;52.20;;;;;;4968647;28;20229;-70
2022/09/09 10:33:18;;;;;;;4.57;2.23;;;31.10;52.40;;;;;;4989462;28;20236;-70
2022/09/09 10:35:56;;;;;;;6.43;1.93;;;31.20;50.20;;;;;;4992258;28;20263;-71
2022/09/09 10:38:34;;;;;;;4.70;1.43;;;31.10;49.00;;;;;;4975154;28;20281;-70
2022/09/09 10:41:10;;;;;;;3.10;1.50;;;31.00;49.90;;;;;;4991864;28;20209;-70
2022/09/09 10:44:00;;;;;;;4.03;1.80;;;31.00;48.90;;;;;;4992960;28;20205;-70
2022/09/09 10:46:39;;;;;;;5.77;1.80;;;31.10;48.70;;;;;;4989595;28;20205;-70
2022/09/09 10:49:24;;;;;;;3.90;1.40;;;31.20;48.00;;;;;;4985380;28;20235;-70
2022/09/09 10:52:10;;;;;;;9.47;2.00;;;31.30;46.70;;;;;;4973845;28;20205;-69
2022/09/09 10:54:53;;;;;;;5.90;2.00;;;31.40;47.20;;;;;;4989746;28;20228;-69
2022/09/09 10:57:37;;;;;;;4.93;1.93;;;31.30;47.70;;;;;;4991154;28;20220;-69
2022/09/09 11:00:14;;;;;;;6.63;2.50;;;31.20;47.70;;;;;;4991062;28;20274;-69
2022/09/09 11:02:42;;;;;;;6.27;2.43;;;31.20;48.90;;;;;;4989606;28;20470;-69
2022/09/09 11:05:39;;;;;;;6.23;3.00;;;31.30;47.50;;;;;;4992891;28;20236;-69
2022/09/09 11:08:19;;;;;;;8.53;2.60;;;31.40;47.40;;;;;;4977398;28;20526;-69
2022/09/09 11:11:00;;;;;;;5.63;2.33;;;31.40;47.60;;;;;;4974797;28;20212;-69
2022/09/09 11:13:43;;;;;;;3.50;2.40;;;31.30;47.90;;;;;;4982963;28;20201;-69
2022/09/09 11:16:30;;;;;;;3.57;1.83;;;31.40;46.70;;;;;;4994536;28;20262;-69
2022/09/09 11:19:03;;;;;;;5.13;2.63;;;31.40;46.90;;;;;;4992639;28;20280;-69
2022/09/09 11:21:47;;;;;;;2.30;1.13;;;31.60;46.80;;;;;;4989211;28;20204;-69
2022/09/09 11:24:19;;;;;;;2.80;1.10;;;31.70;44.20;;;;;;4991704;28;20209;-68
2022/09/09 11:26:57;;;;;;;4.37;1.50;;;31.60;44.60;;;;;;4973722;28;20271;-68
2022/09/09 11:29:25;;;;;;;1.93;1.43;;;31.60;43.70;;;;;;4976110;28;20196;-69
2022/09/09 11:32:21;;;;;;;4.43;1.57;;;31.60;44.00;;;;;;4991076;28;20657;-69
2022/09/09 11:35:20;;;;;;;3.10;1.77;;;31.60;44.00;;;;;;4990571;28;20200;-68
2022/09/09 11:37:59;;;;;;;3.63;1.60;;;31.50;44.20;;;;;;4974506;28;20569;-68
2022/09/09 11:40:28;;;;;;;5.07;1.90;;;31.50;45.30;;;;;;4990887;28;20196;-69
2022/09/09 11:43:04;;;;;;;4.33;1.57;;;31.40;46.30;;;;;;4989646;28;20200;-68
2022/09/09 11:45:35;;;;;;;3.10;1.70;;;31.40;45.70;;;;;;4992830;28;20196;-68
2022/09/09 11:48:05;;;;;;;5.43;1.90;;;31.40;45.00;;;;;;4990818;28;20693;-68
2022/09/09 11:50:37;;;;;;;2.10;1.33;;;31.40;45.10;;;;;;4991207;28;20682;-69
2022/09/09 11:53:23;;;;;;;4.33;1.70;;;31.40;45.80;;;;;;4992021;28;20212;-68
2022/09/09 11:56:15;;;;;;;5.53;1.60;;;31.50;45.80;;;;;;4973322;28;20208;-68
2022/09/09 11:58:59;;;;;;;6.87;1.57;;;31.50;47.40;;;;;;4989990;28;20287;-69
2022/09/09 12:01:33;;;;;;;6.00;1.70;;;31.60;44.70;;;;;;4988668;28;20210;-69
2022/09/09 12:04:28;;;;;;;2.93;1.43;;;31.60;45.20;;;;;;4989004;28;20330;-69
2022/09/09 12:07:03;;;;;;;6.50;1.40;;;31.60;45.80;;;;;;4989297;28;20629;-68
2022/09/09 12:09:33;;;;;;;6.57;1.33;;;31.60;46.10;;;;;;4989169;28;20208;-68
2022/09/09 12:12:12;;;;;;;2.03;1.13;;;31.60;45.30;;;;;;4987808;28;20263;-68
2022/09/09 12:14:43;;;;;;;2.40;1.10;;;31.50;45.00;;;;;;4991196;28;20243;-68
2022/09/09 12:17:15;;;;;;;22.77;1.87;;;31.60;44.10;;;;;;4987914;28;20591;-68
2022/09/09 12:19:42;;;;;;;3.80;1.27;;;31.70;44.00;;;;;;4988686;28;20212;-69
2022/09/09 12:22:49;;;;;;;7.00;1.73;;;31.80;43.30;;;;;;4986652;28;20201;-68
2022/09/09 12:25:36;;;;;;;7.50;4.53;;;31.80;51.20;;;;;;4969593;28;20709;-68
2022/09/09 12:28:17;;;;;;;4.50;2.87;;;31.50;52.50;;;;;;4989030;28;20247;-68
2022/09/09 12:31:09;;;;;;;7.03;2.20;;;31.30;53.40;;;;;;4968618;28;20251;-68
2022/09/09 12:33:42;;;;;;;4.07;2.43;;;31.00;54.20;;;;;;4987746;28;20292;-68
2022/09/09 12:36:32;;;;;;;3.47;2.30;;;30.80;55.10;;;;;;4983056;28;20278;-68
2022/09/09 12:39:16;;;;;;;5.03;2.50;;;30.70;55.30;;;;;;4991620;28;20671;-68
2022/09/09 12:41:56;;;;;;;6.37;2.33;;;30.60;55.40;;;;;;4989725;28;20351;-68
2022/09/09 12:44:29;;;;;;;6.03;2.70;;;30.50;55.50;;;;;;4985659;28;20239;-68
2022/09/09 12:47:00;;;;;;;6.40;3.07;;;30.40;55.20;;;;;;4980533;28;20208;-68
2022/09/09 12:49:35;;;;;;;5.93;2.13;;;30.30;56.90;;;;;;4990915;28;20201;-68
2022/09/09 12:52:05;;;;;;;3.20;2.07;;;30.20;56.80;;;;;;4988162;28;20341;-68
2022/09/09 12:54:36;;;;;;;4.30;2.40;;;30.20;56.10;;;;;;4927657;28;1218038;-68
2022/09/09 12:57:04;;;;;;;3.33;2.20;;;30.20;57.20;;;;;;4968553;28;20578;-68
2022/09/09 12:59:37;;;;;;;3.10;1.80;;;30.20;56.00;;;;;;4971091;28;20201;-68
2022/09/09 13:02:17;;;;;;;6.97;2.00;;;30.20;55.00;;;;;;4966092;28;20206;-68
2022/09/09 13:04:46;;;;;;;2.67;1.90;;;30.20;55.30;;;;;;4971231;28;20608;-68
2022/09/09 13:07:16;;;;;;;4.17;1.83;;;30.30;55.70;;;;;;4970521;28;20202;-68
2022/09/09 13:09:44;;;;;;;5.83;1.77;;;30.20;54.50;;;;;;4985475;28;20280;-68
2022/09/09 13:12:19;;;;;;;8.77;2.37;;;30.20;53.70;;;;;;4971155;28;20638;-68
2022/09/09 13:14:52;;;;;;;5.60;1.73;;;30.20;51.80;;;;;;4971219;28;20549;-68
2022/09/09 13:17:28;;;;;;;4.40;1.90;;;30.20;52.90;;;;;;4985345;28;20260;-68
2022/09/09 13:19:56;;;;;;;4.37;1.87;;;30.20;54.20;;;;;;4987051;28;20205;-68